sensor_id;sensor_type;location;lat;lon;timestamp;pressure;altitude;pressure_sealevel;temperature
53667;BMP280;39568;51.026;5.468;2022-12-29T00:01:44;99393.00;;;10.58
53667;BMP280;39568;51.026;5.468;2022-12-29T00:04:12;99386.25;;;10.57
53667;BMP280;39568;51.026;5.468;2022-12-29T00:06:39;99372.13;;;10.62
53667;BMP280;39568;51.026;5.468;2022-12-29T00:09:06;99389.13;;;10.59
53667;BMP280;39568;51.026;5.468;2022-12-29T00:11:33;99388.09;;;10.62
53667;BMP280;39568;51.026;5.468;2022-12-29T00:14:04;99369.47;;;10.62
53667;BMP280;39568;51.026;5.468;2022-12-29T00:16:48;99358.31;;;10.64
53667;BMP280;39568;51.026;5.468;2022-12-29T00:19:15;99390.00;;;10.75
53667;BMP280;39568;51.026;5.468;2022-12-29T00:22:14;99328.53;;;10.78
53667;BMP280;39568;51.026;5.468;2022-12-29T00:24:58;99341.56;;;10.90
53667;BMP280;39568;51.026;5.468;2022-12-29T00:27:42;99339.31;;;10.94
53667;BMP280;39568;51.026;5.468;2022-12-29T00:30:28;99350.00;;;11.01
53667;BMP280;39568;51.026;5.468;2022-12-29T00:33:20;99357.28;;;11.21
53667;BMP280;39568;51.026;5.468;2022-12-29T00:36:07;99342.28;;;11.31
53667;BMP280;39568;51.026;5.468;2022-12-29T00:38:37;99358.72;;;11.43
53667;BMP280;39568;51.026;5.468;2022-12-29T00:41:22;99378.09;;;11.51
53667;BMP280;39568;51.026;5.468;2022-12-29T00:44:07;99337.69;;;11.60
53667;BMP280;39568;51.026;5.468;2022-12-29T00:46:37;99337.19;;;11.62
53667;BMP280;39568;51.026;5.468;2022-12-29T00:49:05;99342.72;;;11.71
53667;BMP280;39568;51.026;5.468;2022-12-29T00:51:50;99338.28;;;11.66
53667;BMP280;39568;51.026;5.468;2022-12-29T00:54:18;99313.53;;;11.58
53667;BMP280;39568;51.026;5.468;2022-12-29T00:56:46;99329.72;;;11.60
53667;BMP280;39568;51.026;5.468;2022-12-29T00:59:13;99324.38;;;11.60
53667;BMP280;39568;51.026;5.468;2022-12-29T01:01:41;99328.09;;;11.57
53667;BMP280;39568;51.026;5.468;2022-12-29T01:04:08;99319.53;;;11.51
53667;BMP280;39568;51.026;5.468;2022-12-29T01:06:36;99355.44;;;11.58
53667;BMP280;39568;51.026;5.468;2022-12-29T01:09:04;99341.59;;;11.59
53667;BMP280;39568;51.026;5.468;2022-12-29T01:11:49;99336.13;;;11.65
53667;BMP280;39568;51.026;5.468;2022-12-29T01:14:16;99343.63;;;11.66
53667;BMP280;39568;51.026;5.468;2022-12-29T01:16:44;99323.16;;;11.61
53667;BMP280;39568;51.026;5.468;2022-12-29T01:19:12;99312.28;;;11.59
53667;BMP280;39568;51.026;5.468;2022-12-29T01:21:39;99287.50;;;11.72
53667;BMP280;39568;51.026;5.468;2022-12-29T01:24:06;99313.59;;;11.66
53667;BMP280;39568;51.026;5.468;2022-12-29T01:26:32;99344.50;;;11.69
53667;BMP280;39568;51.026;5.468;2022-12-29T01:28:59;99315.88;;;11.62
53667;BMP280;39568;51.026;5.468;2022-12-29T01:31:26;99311.44;;;11.64
53667;BMP280;39568;51.026;5.468;2022-12-29T01:33:54;99329.25;;;11.69
53667;BMP280;39568;51.026;5.468;2022-12-29T01:36:20;99336.00;;;11.70
53667;BMP280;39568;51.026;5.468;2022-12-29T01:38:47;99324.25;;;11.66
53667;BMP280;39568;51.026;5.468;2022-12-29T01:41:15;99326.75;;;11.71
53667;BMP280;39568;51.026;5.468;2022-12-29T01:43:43;99290.69;;;11.70
53667;BMP280;39568;51.026;5.468;2022-12-29T01:46:18;99319.47;;;11.72
53667;BMP280;39568;51.026;5.468;2022-12-29T01:48:51;99327.84;;;11.76
53667;BMP280;39568;51.026;5.468;2022-12-29T01:51:21;99318.97;;;11.73
53667;BMP280;39568;51.026;5.468;2022-12-29T01:53:49;99335.50;;;11.79
53667;BMP280;39568;51.026;5.468;2022-12-29T01:56:19;99314.91;;;11.80
53667;BMP280;39568;51.026;5.468;2022-12-29T01:58:48;99350.44;;;11.82
53667;BMP280;39568;51.026;5.468;2022-12-29T02:01:18;99314.88;;;11.72
53667;BMP280;39568;51.026;5.468;2022-12-29T02:03:46;99338.53;;;11.55
53667;BMP280;39568;51.026;5.468;2022-12-29T02:06:17;99311.63;;;11.38
53667;BMP280;39568;51.026;5.468;2022-12-29T02:08:50;99320.34;;;11.18
53667;BMP280;39568;51.026;5.468;2022-12-29T02:11:18;99307.81;;;11.05
53667;BMP280;39568;51.026;5.468;2022-12-29T02:13:45;99322.09;;;10.95
53667;BMP280;39568;51.026;5.468;2022-12-29T02:16:27;99316.50;;;10.85
53667;BMP280;39568;51.026;5.468;2022-12-29T02:19:08;99303.50;;;10.81
53667;BMP280;39568;51.026;5.468;2022-12-29T02:22:00;99298.34;;;10.76
53667;BMP280;39568;51.026;5.468;2022-12-29T02:25:03;99299.44;;;10.80
53667;BMP280;39568;51.026;5.468;2022-12-29T02:28:14;99285.44;;;10.80
53667;BMP280;39568;51.026;5.468;2022-12-29T02:31:05;99274.00;;;10.93
53667;BMP280;39568;51.026;5.468;2022-12-29T02:33:43;99300.41;;;11.11
53667;BMP280;39568;51.026;5.468;2022-12-29T02:36:20;99300.59;;;11.13
53667;BMP280;39568;51.026;5.468;2022-12-29T02:38:56;99268.72;;;11.21
53667;BMP280;39568;51.026;5.468;2022-12-29T02:41:30;99275.13;;;11.25
53667;BMP280;39568;51.026;5.468;2022-12-29T02:44:03;99287.28;;;11.34
53667;BMP280;39568;51.026;5.468;2022-12-29T02:46:36;99259.22;;;11.33
53667;BMP280;39568;51.026;5.468;2022-12-29T02:49:08;99261.72;;;11.31
53667;BMP280;39568;51.026;5.468;2022-12-29T02:51:42;99250.56;;;11.12
53667;BMP280;39568;51.026;5.468;2022-12-29T02:54:10;99258.41;;;10.97
53667;BMP280;39568;51.026;5.468;2022-12-29T02:56:54;99242.34;;;10.81
53667;BMP280;39568;51.026;5.468;2022-12-29T02:59:21;99250.56;;;10.70
53667;BMP280;39568;51.026;5.468;2022-12-29T03:02:06;99252.84;;;10.66
53667;BMP280;39568;51.026;5.468;2022-12-29T03:04:52;99250.50;;;10.63
53667;BMP280;39568;51.026;5.468;2022-12-29T03:07:23;99242.13;;;10.59
53667;BMP280;39568;51.026;5.468;2022-12-29T03:09:59;99240.63;;;10.50
53667;BMP280;39568;51.026;5.468;2022-12-29T03:12:31;99239.41;;;10.51
53667;BMP280;39568;51.026;5.468;2022-12-29T03:15:22;99225.41;;;10.51
53667;BMP280;39568;51.026;5.468;2022-12-29T03:18:12;99219.75;;;10.54
53667;BMP280;39568;51.026;5.468;2022-12-29T03:20:44;99218.53;;;10.55
53667;BMP280;39568;51.026;5.468;2022-12-29T03:23:13;99205.41;;;10.57
53667;BMP280;39568;51.026;5.468;2022-12-29T03:25:43;99222.94;;;10.73
53667;BMP280;39568;51.026;5.468;2022-12-29T03:28:13;99238.88;;;10.73
53667;BMP280;39568;51.026;5.468;2022-12-29T03:30:41;99219.97;;;10.77
53667;BMP280;39568;51.026;5.468;2022-12-29T03:33:13;99191.84;;;10.89
53667;BMP280;39568;51.026;5.468;2022-12-29T03:35:42;99241.28;;;10.85
53667;BMP280;39568;51.026;5.468;2022-12-29T03:38:14;99228.53;;;10.83
53667;BMP280;39568;51.026;5.468;2022-12-29T03:40:44;99209.06;;;10.88
53667;BMP280;39568;51.026;5.468;2022-12-29T03:43:12;99224.03;;;10.99
53667;BMP280;39568;51.026;5.468;2022-12-29T03:45:39;99254.59;;;11.05
53667;BMP280;39568;51.026;5.468;2022-12-29T03:48:06;99224.19;;;11.21
53667;BMP280;39568;51.026;5.468;2022-12-29T03:50:34;99277.75;;;11.18
53667;BMP280;39568;51.026;5.468;2022-12-29T03:53:01;99233.25;;;11.26
53667;BMP280;39568;51.026;5.468;2022-12-29T03:55:27;99235.56;;;11.22
53667;BMP280;39568;51.026;5.468;2022-12-29T03:57:54;99258.69;;;11.06
53667;BMP280;39568;51.026;5.468;2022-12-29T04:00:21;99254.34;;;10.96
53667;BMP280;39568;51.026;5.468;2022-12-29T04:02:48;99244.56;;;10.91
53667;BMP280;39568;51.026;5.468;2022-12-29T04:05:14;99286.03;;;10.86
53667;BMP280;39568;51.026;5.468;2022-12-29T04:07:42;99233.78;;;10.75
53667;BMP280;39568;51.026;5.468;2022-12-29T04:10:09;99276.78;;;10.66
53667;BMP280;39568;51.026;5.468;2022-12-29T04:12:36;99259.59;;;10.67
53667;BMP280;39568;51.026;5.468;2022-12-29T04:15:03;99293.28;;;10.86
53667;BMP280;39568;51.026;5.468;2022-12-29T04:17:30;99282.44;;;10.84
53667;BMP280;39568;51.026;5.468;2022-12-29T04:19:57;99276.47;;;10.91
53667;BMP280;39568;51.026;5.468;2022-12-29T04:22:37;99260.91;;;11.15
53667;BMP280;39568;51.026;5.468;2022-12-29T04:25:06;99272.50;;;11.05
53667;BMP280;39568;51.026;5.468;2022-12-29T04:27:33;99283.97;;;10.92
53667;BMP280;39568;51.026;5.468;2022-12-29T04:30:00;99254.09;;;10.86
53667;BMP280;39568;51.026;5.468;2022-12-29T04:32:27;99276.91;;;10.81
53667;BMP280;39568;51.026;5.468;2022-12-29T04:34:53;99264.88;;;10.80
53667;BMP280;39568;51.026;5.468;2022-12-29T04:37:20;99274.34;;;10.68
53667;BMP280;39568;51.026;5.468;2022-12-29T04:39:47;99289.50;;;10.60
53667;BMP280;39568;51.026;5.468;2022-12-29T04:42:15;99265.22;;;10.64
53667;BMP280;39568;51.026;5.468;2022-12-29T04:44:41;99272.19;;;10.67
53667;BMP280;39568;51.026;5.468;2022-12-29T04:47:08;99315.94;;;10.66
53667;BMP280;39568;51.026;5.468;2022-12-29T04:49:35;99276.59;;;10.64
53667;BMP280;39568;51.026;5.468;2022-12-29T04:52:01;99299.44;;;10.60
53667;BMP280;39568;51.026;5.468;2022-12-29T04:54:28;99275.09;;;10.56
53667;BMP280;39568;51.026;5.468;2022-12-29T04:56:55;99298.09;;;10.53
53667;BMP280;39568;51.026;5.468;2022-12-29T04:59:23;99286.78;;;10.53
53667;BMP280;39568;51.026;5.468;2022-12-29T05:01:50;99306.19;;;10.48
53667;BMP280;39568;51.026;5.468;2022-12-29T05:04:17;99295.47;;;10.40
53667;BMP280;39568;51.026;5.468;2022-12-29T05:06:43;99300.56;;;10.38
53667;BMP280;39568;51.026;5.468;2022-12-29T05:09:10;99290.28;;;10.35
53667;BMP280;39568;51.026;5.468;2022-12-29T05:11:37;99309.03;;;10.29
53667;BMP280;39568;51.026;5.468;2022-12-29T05:14:03;99307.97;;;10.32
53667;BMP280;39568;51.026;5.468;2022-12-29T05:16:31;99314.50;;;10.31
53667;BMP280;39568;51.026;5.468;2022-12-29T05:18:58;99306.94;;;10.35
53667;BMP280;39568;51.026;5.468;2022-12-29T05:21:25;99308.97;;;10.42
53667;BMP280;39568;51.026;5.468;2022-12-29T05:23:51;99302.00;;;10.39
53667;BMP280;39568;51.026;5.468;2022-12-29T05:26:18;99301.63;;;10.35
53667;BMP280;39568;51.026;5.468;2022-12-29T05:28:45;99315.53;;;10.41
53667;BMP280;39568;51.026;5.468;2022-12-29T05:31:11;99315.88;;;10.58
53667;BMP280;39568;51.026;5.468;2022-12-29T05:33:40;99307.66;;;10.69
53667;BMP280;39568;51.026;5.468;2022-12-29T05:36:08;99314.50;;;10.78
53667;BMP280;39568;51.026;5.468;2022-12-29T05:38:35;99303.84;;;10.78
53667;BMP280;39568;51.026;5.468;2022-12-29T05:41:02;99301.78;;;10.84
53667;BMP280;39568;51.026;5.468;2022-12-29T05:43:28;99323.97;;;10.87
53667;BMP280;39568;51.026;5.468;2022-12-29T05:45:56;99320.16;;;10.95
53667;BMP280;39568;51.026;5.468;2022-12-29T05:48:23;99310.22;;;10.96
53667;BMP280;39568;51.026;5.468;2022-12-29T05:50:51;99317.56;;;11.03
53667;BMP280;39568;51.026;5.468;2022-12-29T05:53:18;99311.97;;;10.93
53667;BMP280;39568;51.026;5.468;2022-12-29T05:55:46;99316.44;;;10.98
53667;BMP280;39568;51.026;5.468;2022-12-29T05:58:13;99319.63;;;10.97
53667;BMP280;39568;51.026;5.468;2022-12-29T06:00:40;99327.53;;;10.89
53667;BMP280;39568;51.026;5.468;2022-12-29T06:03:07;99327.03;;;10.91
53667;BMP280;39568;51.026;5.468;2022-12-29T06:05:34;99329.94;;;11.00
53667;BMP280;39568;51.026;5.468;2022-12-29T06:08:02;99332.28;;;11.04
53667;BMP280;39568;51.026;5.468;2022-12-29T06:10:29;99325.00;;;11.04
53667;BMP280;39568;51.026;5.468;2022-12-29T06:12:55;99337.09;;;11.05
53667;BMP280;39568;51.026;5.468;2022-12-29T06:15:22;99340.09;;;11.02
53667;BMP280;39568;51.026;5.468;2022-12-29T06:17:52;99339.91;;;11.00
53667;BMP280;39568;51.026;5.468;2022-12-29T06:20:18;99344.81;;;10.96
53667;BMP280;39568;51.026;5.468;2022-12-29T06:22:45;99329.69;;;10.91
53667;BMP280;39568;51.026;5.468;2022-12-29T06:25:13;99344.63;;;10.94
53667;BMP280;39568;51.026;5.468;2022-12-29T06:27:40;99358.03;;;10.88
53667;BMP280;39568;51.026;5.468;2022-12-29T06:30:08;99384.34;;;10.92
53667;BMP280;39568;51.026;5.468;2022-12-29T06:32:35;99351.34;;;10.95
53667;BMP280;39568;51.026;5.468;2022-12-29T06:35:02;99356.50;;;10.93
53667;BMP280;39568;51.026;5.468;2022-12-29T06:37:29;99366.94;;;10.91
53667;BMP280;39568;51.026;5.468;2022-12-29T06:39:56;99354.53;;;10.93
53667;BMP280;39568;51.026;5.468;2022-12-29T06:42:24;99352.91;;;10.90
53667;BMP280;39568;51.026;5.468;2022-12-29T06:44:50;99373.81;;;10.86
53667;BMP280;39568;51.026;5.468;2022-12-29T06:47:17;99375.88;;;10.80
53667;BMP280;39568;51.026;5.468;2022-12-29T06:49:44;99393.38;;;10.75
53667;BMP280;39568;51.026;5.468;2022-12-29T06:52:11;99391.75;;;10.72
53667;BMP280;39568;51.026;5.468;2022-12-29T06:54:38;99400.66;;;10.75
53667;BMP280;39568;51.026;5.468;2022-12-29T06:57:05;99385.16;;;10.87
53667;BMP280;39568;51.026;5.468;2022-12-29T06:59:33;99381.69;;;10.92
53667;BMP280;39568;51.026;5.468;2022-12-29T07:02:00;99400.72;;;10.82
53667;BMP280;39568;51.026;5.468;2022-12-29T07:04:27;99405.06;;;10.72
53667;BMP280;39568;51.026;5.468;2022-12-29T07:06:54;99387.03;;;10.78
53667;BMP280;39568;51.026;5.468;2022-12-29T07:09:21;99396.78;;;10.76
53667;BMP280;39568;51.026;5.468;2022-12-29T07:11:48;99385.06;;;10.79
53667;BMP280;39568;51.026;5.468;2022-12-29T07:14:14;99408.53;;;10.80
53667;BMP280;39568;51.026;5.468;2022-12-29T07:16:42;99404.22;;;10.77
53667;BMP280;39568;51.026;5.468;2022-12-29T07:19:09;99414.25;;;10.71
53667;BMP280;39568;51.026;5.468;2022-12-29T07:21:36;99413.44;;;10.76
53667;BMP280;39568;51.026;5.468;2022-12-29T07:24:03;99407.91;;;10.74
53667;BMP280;39568;51.026;5.468;2022-12-29T07:26:30;99401.56;;;10.77
53667;BMP280;39568;51.026;5.468;2022-12-29T07:28:57;99397.25;;;10.74
53667;BMP280;39568;51.026;5.468;2022-12-29T07:31:23;99412.00;;;10.75
53667;BMP280;39568;51.026;5.468;2022-12-29T07:33:51;99412.72;;;10.76
53667;BMP280;39568;51.026;5.468;2022-12-29T07:36:18;99403.19;;;10.80
53667;BMP280;39568;51.026;5.468;2022-12-29T07:38:45;99412.81;;;10.84
53667;BMP280;39568;51.026;5.468;2022-12-29T07:41:11;99420.56;;;10.81
53667;BMP280;39568;51.026;5.468;2022-12-29T07:43:38;99409.13;;;10.73
53667;BMP280;39568;51.026;5.468;2022-12-29T07:46:05;99404.13;;;10.70
53667;BMP280;39568;51.026;5.468;2022-12-29T07:48:34;99412.44;;;10.66
53667;BMP280;39568;51.026;5.468;2022-12-29T07:51:02;99431.19;;;10.61
53667;BMP280;39568;51.026;5.468;2022-12-29T07:53:29;99428.69;;;10.50
53667;BMP280;39568;51.026;5.468;2022-12-29T07:55:56;99439.25;;;10.42
53667;BMP280;39568;51.026;5.468;2022-12-29T07:58:22;99456.44;;;10.41
53667;BMP280;39568;51.026;5.468;2022-12-29T08:00:53;99455.63;;;10.33
53667;BMP280;39568;51.026;5.468;2022-12-29T08:03:20;99464.69;;;10.25
53667;BMP280;39568;51.026;5.468;2022-12-29T08:05:46;99460.41;;;10.22
53667;BMP280;39568;51.026;5.468;2022-12-29T08:08:14;99439.34;;;10.24
53667;BMP280;39568;51.026;5.468;2022-12-29T08:10:41;99477.28;;;10.24
53667;BMP280;39568;51.026;5.468;2022-12-29T08:13:08;99457.88;;;10.29
53667;BMP280;39568;51.026;5.468;2022-12-29T08:15:34;99470.31;;;10.34
53667;BMP280;39568;51.026;5.468;2022-12-29T08:18:03;99456.09;;;10.32
53667;BMP280;39568;51.026;5.468;2022-12-29T08:20:30;99461.34;;;10.37
53667;BMP280;39568;51.026;5.468;2022-12-29T08:22:57;99477.06;;;10.35
53667;BMP280;39568;51.026;5.468;2022-12-29T08:25:25;99496.50;;;10.43
53667;BMP280;39568;51.026;5.468;2022-12-29T08:27:52;99459.50;;;10.45
53667;BMP280;39568;51.026;5.468;2022-12-29T08:30:18;99465.22;;;10.49
53667;BMP280;39568;51.026;5.468;2022-12-29T08:32:45;99504.28;;;10.54
53667;BMP280;39568;51.026;5.468;2022-12-29T08:35:12;99483.41;;;10.58
53667;BMP280;39568;51.026;5.468;2022-12-29T08:37:39;99475.66;;;10.60
53667;BMP280;39568;51.026;5.468;2022-12-29T08:40:06;99453.88;;;10.62
53667;BMP280;39568;51.026;5.468;2022-12-29T08:42:35;99482.19;;;10.72
53667;BMP280;39568;51.026;5.468;2022-12-29T08:45:02;99483.59;;;10.73
53667;BMP280;39568;51.026;5.468;2022-12-29T08:47:29;99498.75;;;10.65
53667;BMP280;39568;51.026;5.468;2022-12-29T08:49:55;99481.56;;;10.66
53667;BMP280;39568;51.026;5.468;2022-12-29T08:52:22;99500.19;;;10.66
53667;BMP280;39568;51.026;5.468;2022-12-29T08:54:49;99485.16;;;10.69
53667;BMP280;39568;51.026;5.468;2022-12-29T08:57:15;99511.56;;;10.67
53667;BMP280;39568;51.026;5.468;2022-12-29T08:59:44;99513.88;;;10.57
53667;BMP280;39568;51.026;5.468;2022-12-29T09:02:11;99492.50;;;10.63
53667;BMP280;39568;51.026;5.468;2022-12-29T09:04:37;99510.00;;;10.58
53667;BMP280;39568;51.026;5.468;2022-12-29T09:07:04;99490.91;;;10.60
53667;BMP280;39568;51.026;5.468;2022-12-29T09:09:31;99505.50;;;10.66
53667;BMP280;39568;51.026;5.468;2022-12-29T09:11:58;99489.78;;;10.68
53667;BMP280;39568;51.026;5.468;2022-12-29T09:14:26;99501.63;;;10.67
53667;BMP280;39568;51.026;5.468;2022-12-29T09:16:54;99505.91;;;10.70
53667;BMP280;39568;51.026;5.468;2022-12-29T09:19:38;99534.78;;;10.66
53667;BMP280;39568;51.026;5.468;2022-12-29T09:22:05;99501.63;;;10.67
53667;BMP280;39568;51.026;5.468;2022-12-29T09:24:31;99552.28;;;10.62
53667;BMP280;39568;51.026;5.468;2022-12-29T09:26:58;99510.25;;;10.60
53667;BMP280;39568;51.026;5.468;2022-12-29T09:29:25;99512.38;;;10.62
53667;BMP280;39568;51.026;5.468;2022-12-29T09:31:52;99522.38;;;10.69
53667;BMP280;39568;51.026;5.468;2022-12-29T09:34:20;99523.63;;;10.68
53667;BMP280;39568;51.026;5.468;2022-12-29T09:36:47;99537.22;;;10.64
53667;BMP280;39568;51.026;5.468;2022-12-29T09:39:13;99524.25;;;10.61
53667;BMP280;39568;51.026;5.468;2022-12-29T09:41:43;99533.56;;;10.67
53667;BMP280;39568;51.026;5.468;2022-12-29T09:44:16;99536.09;;;10.73
53667;BMP280;39568;51.026;5.468;2022-12-29T09:46:49;99529.78;;;10.76
53667;BMP280;39568;51.026;5.468;2022-12-29T09:49:25;99531.00;;;10.75
53667;BMP280;39568;51.026;5.468;2022-12-29T09:51:59;99552.88;;;10.81
53667;BMP280;39568;51.026;5.468;2022-12-29T09:54:39;99560.56;;;10.85
53667;BMP280;39568;51.026;5.468;2022-12-29T09:57:15;99519.44;;;10.86
53667;BMP280;39568;51.026;5.468;2022-12-29T09:59:44;99547.25;;;10.85
53667;BMP280;39568;51.026;5.468;2022-12-29T10:02:27;99571.00;;;10.82
53667;BMP280;39568;51.026;5.468;2022-12-29T10:04:56;99571.09;;;10.90
53667;BMP280;39568;51.026;5.468;2022-12-29T10:07:30;99583.19;;;10.91
53667;BMP280;39568;51.026;5.468;2022-12-29T10:10:06;99563.00;;;10.96
53667;BMP280;39568;51.026;5.468;2022-12-29T10:12:46;99587.06;;;10.90
53667;BMP280;39568;51.026;5.468;2022-12-29T10:15:29;99580.41;;;10.97
53667;BMP280;39568;51.026;5.468;2022-12-29T10:18:03;99611.34;;;11.00
53667;BMP280;39568;51.026;5.468;2022-12-29T10:20:38;99566.59;;;10.98
53667;BMP280;39568;51.026;5.468;2022-12-29T10:23:24;99579.72;;;10.96
53667;BMP280;39568;51.026;5.468;2022-12-29T10:25:53;99594.56;;;10.92
53667;BMP280;39568;51.026;5.468;2022-12-29T10:28:22;99619.00;;;10.90
53667;BMP280;39568;51.026;5.468;2022-12-29T10:30:50;99595.06;;;10.90
53667;BMP280;39568;51.026;5.468;2022-12-29T10:33:20;99597.00;;;10.90
53667;BMP280;39568;51.026;5.468;2022-12-29T10:35:50;99596.38;;;10.97
53667;BMP280;39568;51.026;5.468;2022-12-29T10:38:24;99613.56;;;10.96
53667;BMP280;39568;51.026;5.468;2022-12-29T10:40:56;99612.44;;;11.04
53667;BMP280;39568;51.026;5.468;2022-12-29T10:43:26;99606.22;;;11.02
53667;BMP280;39568;51.026;5.468;2022-12-29T10:45:54;99638.25;;;10.96
53667;BMP280;39568;51.026;5.468;2022-12-29T10:48:23;99622.28;;;10.96
53667;BMP280;39568;51.026;5.468;2022-12-29T10:50:56;99623.41;;;11.01
53667;BMP280;39568;51.026;5.468;2022-12-29T10:53:25;99623.59;;;11.03
53667;BMP280;39568;51.026;5.468;2022-12-29T10:55:53;99613.28;;;10.99
53667;BMP280;39568;51.026;5.468;2022-12-29T10:58:21;99620.41;;;11.04
53667;BMP280;39568;51.026;5.468;2022-12-29T11:00:50;99638.66;;;11.00
53667;BMP280;39568;51.026;5.468;2022-12-29T11:03:41;99631.56;;;10.90
53667;BMP280;39568;51.026;5.468;2022-12-29T11:06:15;99609.38;;;11.00
53667;BMP280;39568;51.026;5.468;2022-12-29T11:08:52;99636.50;;;10.99
53667;BMP280;39568;51.026;5.468;2022-12-29T11:11:24;99641.59;;;10.97
53667;BMP280;39568;51.026;5.468;2022-12-29T11:13:56;99649.59;;;10.97
53667;BMP280;39568;51.026;5.468;2022-12-29T11:16:33;99634.66;;;10.94
53667;BMP280;39568;51.026;5.468;2022-12-29T11:19:02;99638.75;;;10.95
53667;BMP280;39568;51.026;5.468;2022-12-29T11:21:35;99664.72;;;10.89
53667;BMP280;39568;51.026;5.468;2022-12-29T11:24:18;99652.13;;;10.89
53667;BMP280;39568;51.026;5.468;2022-12-29T11:26:45;99680.69;;;10.89
53667;BMP280;39568;51.026;5.468;2022-12-29T11:29:20;99667.38;;;10.89
53667;BMP280;39568;51.026;5.468;2022-12-29T11:31:49;99662.50;;;10.93
53667;BMP280;39568;51.026;5.468;2022-12-29T11:34:17;99647.06;;;10.91
53667;BMP280;39568;51.026;5.468;2022-12-29T11:36:46;99691.34;;;10.89
53667;BMP280;39568;51.026;5.468;2022-12-29T11:39:33;99663.09;;;10.86
53667;BMP280;39568;51.026;5.468;2022-12-29T11:42:00;99685.13;;;10.86
53667;BMP280;39568;51.026;5.468;2022-12-29T11:44:35;99681.41;;;10.89
53667;BMP280;39568;51.026;5.468;2022-12-29T11:47:03;99687.25;;;10.88
53667;BMP280;39568;51.026;5.468;2022-12-29T11:49:31;99684.06;;;10.89
53667;BMP280;39568;51.026;5.468;2022-12-29T11:52:00;99682.84;;;10.90
53667;BMP280;39568;51.026;5.468;2022-12-29T11:54:30;99704.31;;;10.79
53667;BMP280;39568;51.026;5.468;2022-12-29T11:56:58;99703.31;;;10.82
53667;BMP280;39568;51.026;5.468;2022-12-29T11:59:37;99696.66;;;10.89
53667;BMP280;39568;51.026;5.468;2022-12-29T12:10:38;99696.78;;;10.96
53667;BMP280;39568;51.026;5.468;2022-12-29T12:13:18;99699.06;;;10.92
53667;BMP280;39568;51.026;5.468;2022-12-29T12:15:51;99708.66;;;10.95
53667;BMP280;39568;51.026;5.468;2022-12-29T12:18:30;99698.75;;;11.09
53667;BMP280;39568;51.026;5.468;2022-12-29T12:21:05;99699.69;;;11.24
53667;BMP280;39568;51.026;5.468;2022-12-29T12:23:40;99694.88;;;11.36
53667;BMP280;39568;51.026;5.468;2022-12-29T12:26:15;99696.94;;;11.43
53667;BMP280;39568;51.026;5.468;2022-12-29T12:28:49;99700.72;;;11.34
53667;BMP280;39568;51.026;5.468;2022-12-29T12:31:27;99709.91;;;11.20
53667;BMP280;39568;51.026;5.468;2022-12-29T12:34:00;99707.38;;;11.15
53667;BMP280;39568;51.026;5.468;2022-12-29T12:39:26;99705.09;;;11.06
53667;BMP280;39568;51.026;5.468;2022-12-29T12:42:04;99706.31;;;11.05
53667;BMP280;39568;51.026;5.468;2022-12-29T12:44:36;99690.75;;;10.96
53667;BMP280;39568;51.026;5.468;2022-12-29T12:47:18;99716.34;;;10.99
53667;BMP280;39568;51.026;5.468;2022-12-29T12:49:56;99699.94;;;10.95
53667;BMP280;39568;51.026;5.468;2022-12-29T12:52:31;99730.03;;;10.90
53667;BMP280;39568;51.026;5.468;2022-12-29T12:55:27;99733.91;;;10.89
53667;BMP280;39568;51.026;5.468;2022-12-29T12:58:05;99704.75;;;10.83
53667;BMP280;39568;51.026;5.468;2022-12-29T13:00:42;99701.47;;;10.90
53667;BMP280;39568;51.026;5.468;2022-12-29T13:03:13;99719.19;;;10.88
53667;BMP280;39568;51.026;5.468;2022-12-29T13:06:01;99712.75;;;10.83
53667;BMP280;39568;51.026;5.468;2022-12-29T13:11:26;99711.22;;;10.88
53667;BMP280;39568;51.026;5.468;2022-12-29T13:14:06;99717.94;;;10.89
53667;BMP280;39568;51.026;5.468;2022-12-29T13:16:42;99718.56;;;10.81
53667;BMP280;39568;51.026;5.468;2022-12-29T13:19:17;99703.63;;;10.78
53667;BMP280;39568;51.026;5.468;2022-12-29T13:21:55;99692.53;;;10.74
53667;BMP280;39568;51.026;5.468;2022-12-29T13:24:28;99720.06;;;10.77
53667;BMP280;39568;51.026;5.468;2022-12-29T13:27:02;99711.16;;;10.74
53667;BMP280;39568;51.026;5.468;2022-12-29T13:29:35;99710.06;;;10.83
53667;BMP280;39568;51.026;5.468;2022-12-29T13:32:14;99708.25;;;10.91
53667;BMP280;39568;51.026;5.468;2022-12-29T13:34:56;99720.91;;;10.85
53667;BMP280;39568;51.026;5.468;2022-12-29T13:37:29;99722.47;;;10.94
53667;BMP280;39568;51.026;5.468;2022-12-29T13:40:01;99725.34;;;10.96
53667;BMP280;39568;51.026;5.468;2022-12-29T13:42:29;99734.13;;;10.91
53667;BMP280;39568;51.026;5.468;2022-12-29T13:45:01;99710.56;;;10.81
53667;BMP280;39568;51.026;5.468;2022-12-29T13:47:32;99699.19;;;10.81
53667;BMP280;39568;51.026;5.468;2022-12-29T13:50:03;99707.50;;;10.77
53667;BMP280;39568;51.026;5.468;2022-12-29T13:52:36;99720.16;;;10.71
53667;BMP280;39568;51.026;5.468;2022-12-29T13:55:18;99716.50;;;10.74
53667;BMP280;39568;51.026;5.468;2022-12-29T13:57:51;99725.69;;;10.73
53667;BMP280;39568;51.026;5.468;2022-12-29T14:00:19;99755.78;;;10.68
53667;BMP280;39568;51.026;5.468;2022-12-29T14:03:04;99720.34;;;10.60
53667;BMP280;39568;51.026;5.468;2022-12-29T14:05:37;99717.47;;;10.58
53667;BMP280;39568;51.026;5.468;2022-12-29T14:08:05;99727.16;;;10.56
53667;BMP280;39568;51.026;5.468;2022-12-29T14:10:34;99731.97;;;10.57
53667;BMP280;39568;51.026;5.468;2022-12-29T14:13:06;99748.66;;;10.58
53667;BMP280;39568;51.026;5.468;2022-12-29T14:15:39;99738.97;;;10.60
53667;BMP280;39568;51.026;5.468;2022-12-29T14:18:15;99734.63;;;10.57
53667;BMP280;39568;51.026;5.468;2022-12-29T14:20:50;99745.88;;;10.50
53667;BMP280;39568;51.026;5.468;2022-12-29T14:23:28;99772.56;;;10.45
53667;BMP280;39568;51.026;5.468;2022-12-29T14:26:00;99741.22;;;10.38
53667;BMP280;39568;51.026;5.468;2022-12-29T14:28:36;99761.91;;;10.26
53667;BMP280;39568;51.026;5.468;2022-12-29T14:31:07;99797.88;;;10.08
53667;BMP280;39568;51.026;5.468;2022-12-29T14:34:16;99761.44;;;9.85
53667;BMP280;39568;51.026;5.468;2022-12-29T14:36:54;99758.22;;;9.68
53667;BMP280;39568;51.026;5.468;2022-12-29T14:39:38;99766.19;;;9.68
53667;BMP280;39568;51.026;5.468;2022-12-29T14:42:06;99765.75;;;9.64
53667;BMP280;39568;51.026;5.468;2022-12-29T14:44:46;99757.44;;;9.73
53667;BMP280;39568;51.026;5.468;2022-12-29T14:47:18;99779.72;;;9.70